Time;durP1;ratioP1;P1;durP2;ratioP2;P2;SDS_P1;SDS_P2;PMS_P1;PMS_P2;Temp;Humidity;BMP_temperature;BMP_pressure;BME280_temperature;BME280_humidity;BME280_pressure;Samples;Min_cycle;Max_cycle;Signal;HPM_P1;HPM_P2
2022/03/16 00:00:51;;;;;;;;;;;6.00;99.90;;;;;;5133422;28;20047;-81
2022/03/16 00:03:17;;;;;;;41.30;23.65;;;6.00;99.90;;;;;;5132731;28;19919;-81
2022/03/16 00:05:43;;;;;;;36.08;21.25;;;4.80;99.90;;;;;;5114162;28;20051;-81
2022/03/16 00:08:08;;;;;;;;;;;6.00;99.90;;;;;;5133087;28;20043;-81
2022/03/16 00:10:34;;;;;;;39.85;21.77;;;5.90;99.90;;;;;;5114219;28;19934;-81
2022/03/16 00:13:00;;;;;;;;;;;5.80;99.90;;;;;;5134523;27;20047;-81
2022/03/16 00:15:25;;;;;;;35.78;21.40;;;5.80;99.90;;;;;;5114493;28;19919;-81
2022/03/16 00:17:51;;;;;;;;;;;5.80;99.90;;;;;;5115239;28;20046;-81
2022/03/16 00:20:16;;;;;;;38.75;22.05;;;5.80;99.90;;;;;;5132957;28;20014;-81
2022/03/16 00:22:48;;;;;;;35.45;21.58;;;5.70;99.90;;;;;;5114633;27;20386;-80
2022/03/16 00:25:14;;;;;;;;;;;5.70;99.90;;;;;;5114223;28;20040;-81
2022/03/16 00:27:39;;;;;;;40.17;23.63;;;5.70;99.90;;;;;;5113995;28;20316;-81
2022/03/16 00:30:08;;;;;;;39.65;22.75;;;5.70;99.90;;;;;;5114592;28;20051;-81
2022/03/16 00:32:36;;;;;;;41.85;23.70;;;5.70;99.90;;;;;;5114535;28;20097;-81
2022/03/16 00:35:02;;;;;;;43.58;23.70;;;5.70;99.90;;;;;;5134987;27;20039;-81
2022/03/16 00:37:28;;;;;;;41.40;23.58;;;5.70;99.90;;;;;;5136001;27;20504;-81
2022/03/16 00:39:54;;;;;;;;;;;5.70;99.90;;;;;;5118339;27;20082;-81
2022/03/16 00:42:19;;;;;;;43.25;22.75;;;5.90;99.90;;;;;;5118305;27;20267;-81
2022/03/16 00:44:45;;;;;;;;;;;5.70;99.90;;;;;;5118865;27;20043;-81
2022/03/16 00:47:10;;;;;;;42.42;23.63;;;5.70;99.90;;;;;;5135576;27;20059;-81
2022/03/16 00:49:36;;;;;;;;;;;5.60;99.90;;;;;;5119522;27;20397;-81
2022/03/16 00:52:02;;;;;;;39.28;22.52;;;5.60;99.90;;;;;;5136264;27;19923;-81
2022/03/16 00:54:28;;;;;;;;;;;5.60;99.90;;;;;;5136104;27;20424;-81
2022/03/16 00:56:56;;;;;;;43.30;23.30;;;5.50;99.90;;;;;;5117765;27;19923;-81
2022/03/16 00:59:21;;;;;;;;;;;5.50;99.90;;;;;;5136107;27;20035;-81
2022/03/16 01:01:47;;;;;;;37.42;21.77;;;5.40;99.90;;;;;;5135770;27;19919;-81
2022/03/16 01:04:13;;;;;;;41.28;21.80;;;5.40;99.90;;;;;;5135526;27;20043;-80
2022/03/16 01:06:38;;;;;;;;;;;5.40;99.90;;;;;;5137345;27;20503;-80
2022/03/16 01:09:04;;;;;;;36.33;22.52;;;6.50;99.90;;;;;;5135078;27;19942;-80
2022/03/16 01:11:29;;;;;;;;;;;5.30;99.90;;;;;;5136416;27;20062;-81
2022/03/16 01:13:55;;;;;;;35.50;21.20;;;5.20;99.90;;;;;;5135181;27;20389;-80
2022/03/16 01:16:20;;;;;;;;;;;5.20;99.90;;;;;;5135977;27;20066;-81
2022/03/16 01:18:46;;;;;;;44.80;22.98;;;5.60;99.90;;;;;;5135442;27;19927;-81
2022/03/16 01:21:11;;;;;;;;;;;5.00;99.90;;;;;;5136379;27;20508;-80
2022/03/16 01:23:37;;;;;;;34.90;20.95;;;5.00;99.90;;;;;;5135860;27;19942;-81
2022/03/16 01:26:04;;;;;;;;;;;5.00;99.90;;;;;;5136488;27;20031;-81
2022/03/16 01:28:30;;;;;;;36.45;21.45;;;5.30;99.90;;;;;;5116302;27;19969;-80
2022/03/16 01:30:57;;;;;;;;;;;5.00;99.90;;;;;;5136149;27;20463;-81
2022/03/16 01:33:23;;;;;;;;;;;5.00;99.90;;;;;;5135824;27;19944;-81
2022/03/16 01:35:48;;;;;;;35.88;20.17;;;5.00;99.90;;;;;;5155806;27;19923;-80
2022/03/16 01:38:14;;;;;;;;;;;6.20;99.90;;;;;;5137450;27;20453;-81
2022/03/16 01:40:39;;;;;;;36.42;21.83;;;5.00;99.90;;;;;;5156333;27;19929;-81
2022/03/16 01:43:05;;;;;;;36.08;20.73;;;4.90;99.90;;;;;;5141233;27;20043;-81
2022/03/16 01:45:31;;;;;;;;;;;4.90;99.90;;;;;;5135638;27;20085;-81
2022/03/16 01:47:56;;;;;;;34.15;20.85;;;4.90;99.90;;;;;;5135053;27;19926;-81
2022/03/16 01:50:22;;;;;;;;;;;4.80;99.90;;;;;;5134625;27;20367;-81
2022/03/16 01:52:48;;;;;;;32.47;19.40;;;4.90;99.90;;;;;;5136100;27;19919;-81
2022/03/16 01:55:14;;;;;;;37.20;21.42;;;4.80;99.90;;;;;;5116640;27;20054;-81
2022/03/16 01:57:40;;;;;;;;;;;4.90;99.90;;;;;;5135019;27;20413;-82
2022/03/16 02:00:07;;;;;;;34.85;21.10;;;5.00;99.90;;;;;;5116358;27;19920;-83
2022/03/16 02:02:33;;;;;;;38.03;21.02;;;5.00;99.90;;;;;;5117017;27;20039;-83
2022/03/16 02:04:59;;;;;;;;;;;5.00;99.90;;;;;;5135637;27;20398;-83
2022/03/16 02:07:25;;;;;;;35.08;21.45;;;5.00;99.90;;;;;;5134807;27;19919;-82
2022/03/16 02:09:50;;;;;;;;;;;5.00;99.90;;;;;;5135364;27;20043;-82
2022/03/16 02:12:16;;;;;;;34.88;19.88;;;4.90;99.90;;;;;;5134260;27;19919;-82
2022/03/16 02:14:42;;;;;;;;;;;4.90;99.90;;;;;;5116869;27;20035;-82
2022/03/16 02:17:07;;;;;;;36.17;21.08;;;4.80;99.90;;;;;;5134131;27;19919;-81
2022/03/16 02:19:33;;;;;;;;;;;4.80;99.90;;;;;;5135190;27;20066;-82
2022/03/16 02:22:02;;;;;;;33.53;20.70;;;4.70;99.90;;;;;;5152151;27;19918;-82
2022/03/16 02:24:29;;;;;;;34.22;20.60;;;4.70;99.90;;;;;;5154709;27;20034;-82
2022/03/16 02:26:56;;;;;;;35.15;20.77;;;4.70;99.90;;;;;;5155607;27;20056;-83
2022/03/16 02:29:22;;;;;;;38.97;22.02;;;4.70;99.90;;;;;;5154461;27;20133;-83
2022/03/16 02:31:47;;;;;;;;;;;4.70;99.90;;;;;;5153246;27;20074;-83
2022/03/16 02:34:13;;;;;;;37.90;20.95;;;4.70;99.90;;;;;;5154588;27;20377;-82
2022/03/16 02:36:39;;;;;;;;;;;4.70;99.90;;;;;;5155745;27;20062;-82
2022/03/16 02:39:04;;;;;;;36.28;21.10;;;4.70;99.90;;;;;;5153785;27;20362;-82
2022/03/16 02:41:33;;;;;;;;;;;4.60;99.90;;;;;;5128927;27;20073;-82
2022/03/16 02:44:02;;;;;;;32.75;19.52;;;4.60;99.90;;;;;;5134449;27;19919;-82
2022/03/16 02:46:27;;;;;;;35.22;20.27;;;4.60;99.90;;;;;;5133070;27;20406;-82
2022/03/16 02:48:53;;;;;;;;;;;4.60;99.90;;;;;;5116106;27;20047;-82
2022/03/16 02:51:18;;;;;;;28.35;18.98;;;4.50;99.90;;;;;;5147599;27;19919;-81
2022/03/16 02:53:45;;;;;;;;;;;4.40;99.90;;;;;;5135315;27;20474;-81
2022/03/16 02:56:11;;;;;;;33.00;19.50;;;4.30;99.90;;;;;;5154533;27;19914;-81
2022/03/16 02:58:37;;;;;;;;;;;4.30;99.90;;;;;;5154529;27;20332;-81
2022/03/16 03:01:03;;;;;;;32.72;19.30;;;4.30;99.90;;;;;;5154038;27;19919;-82
2022/03/16 03:03:28;;;;;;;35.15;19.80;;;4.30;99.90;;;;;;5136042;27;20054;-82
2022/03/16 03:05:55;;;;;;;;;;;4.20;99.90;;;;;;5155194;27;20031;-82
2022/03/16 03:08:21;;;;;;;33.25;20.42;;;4.20;99.90;;;;;;5137817;27;19970;-82
2022/03/16 03:10:48;;;;;;;;;;;4.10;99.90;;;;;;5134225;27;20070;-81
2022/03/16 03:13:14;;;;;;;38.70;20.27;;;4.10;99.90;;;;;;5115034;27;19926;-81
2022/03/16 03:15:41;;;;;;;37.35;20.77;;;4.20;99.90;;;;;;5134190;27;20039;-81
2022/03/16 03:18:07;;;;;;;33.10;20.80;;;4.20;99.90;;;;;;5133391;27;20054;-81
2022/03/16 03:20:32;;;;;;;;;;;4.20;99.90;;;;;;5133778;27;20035;-81
2022/03/16 03:22:58;;;;;;;38.47;22.10;;;4.20;99.90;;;;;;5115477;27;19927;-82
2022/03/16 03:25:24;;;;;;;;;;;4.20;99.90;;;;;;5133607;27;20052;-82
2022/03/16 03:27:49;;;;;;;38.58;21.27;;;4.10;99.90;;;;;;5132868;27;19919;-81
2022/03/16 03:30:15;;;;;;;;;;;4.10;99.90;;;;;;5133817;27;20048;-82
2022/03/16 03:32:41;;;;;;;32.65;21.10;;;4.10;99.90;;;;;;5133755;28;20328;-82
2022/03/16 03:35:08;;;;;;;36.60;19.98;;;4.00;99.90;;;;;;5132651;28;20042;-81
2022/03/16 03:37:33;;;;;;;37.28;20.38;;;4.00;99.90;;;;;;5115078;28;20482;-82
2022/03/16 03:39:59;;;;;;;;;;;4.00;99.90;;;;;;5135155;27;20147;-82
2022/03/16 03:42:25;;;;;;;37.25;20.30;;;3.90;99.90;;;;;;5132645;28;19919;-82
2022/03/16 03:44:53;;;;;;;36.88;21.13;;;3.90;99.90;;;;;;5114971;28;20077;-82
2022/03/16 03:47:19;;;;;;;40.92;22.90;;;3.90;99.90;;;;;;5132646;28;20553;-82
2022/03/16 03:49:45;;;;;;;;;;;3.90;99.90;;;;;;5137178;27;20121;-82
2022/03/16 03:52:11;;;;;;;39.72;21.88;;;4.00;99.90;;;;;;5153813;27;19919;-82
2022/03/16 03:54:36;;;;;;;;;;;4.10;99.90;;;;;;5154330;27;20043;-82
2022/03/16 03:57:02;;;;;;;36.40;21.40;;;4.30;99.90;;;;;;5135262;27;19944;-82
2022/03/16 03:59:28;;;;;;;;;;;4.10;99.90;;;;;;5153868;27;20054;-82
2022/03/16 04:01:53;;;;;;;37.58;22.25;;;4.10;99.90;;;;;;5151766;27;19919;-82
2022/03/16 04:04:19;;;;;;;39.65;22.80;;;4.10;99.90;;;;;;5153261;27;20132;-82
2022/03/16 04:06:45;;;;;;;;;;;4.00;99.90;;;;;;5154545;27;20062;-83
2022/03/16 04:09:11;;;;;;;40.38;21.77;;;;;;;;;;5153420;27;19926;-82
2022/03/16 04:11:36;;;;;;;;;;;3.90;99.90;;;;;;5157076;27;20577;-82
2022/03/16 04:14:05;;;;;;;37.78;21.88;;;3.90;99.90;;;;;;5138728;27;19919;-82
2022/03/16 04:16:31;;;;;;;36.97;21.35;;;3.80;99.90;;;;;;5157649;27;20035;-82
2022/03/16 04:18:57;;;;;;;;;;;3.80;99.90;;;;;;5157747;27;20104;-82
2022/03/16 04:21:22;;;;;;;36.63;21.20;;;3.70;99.90;;;;;;5157331;27;19919;-82
2022/03/16 04:23:49;;;;;;;;;;;4.10;99.90;;;;;;5157743;27;20103;-82
2022/03/16 04:26:15;;;;;;;39.65;22.80;;;3.80;99.90;;;;;;5155319;27;19933;-82
2022/03/16 04:28:41;;;;;;;37.00;23.17;;;3.80;99.90;;;;;;5138297;27;20059;-82
2022/03/16 04:31:06;;;;;;;;;;;3.90;99.90;;;;;;5157309;27;20099;-82
2022/03/16 04:33:32;;;;;;;42.08;23.15;;;3.90;99.90;;;;;;5146147;27;19972;-82
2022/03/16 04:35:58;;;;;;;;;;;4.00;99.90;;;;;;5137175;27;20039;-82
2022/03/16 04:38:23;;;;;;;41.30;23.83;;;4.10;99.90;;;;;;5135836;27;19928;-82
2022/03/16 04:40:49;;;;;;;;;;;4.10;99.90;;;;;;5137004;27;20488;-81
2022/03/16 04:43:17;;;;;;;36.92;22.27;;;4.10;99.90;;;;;;5136273;27;19919;-82
2022/03/16 04:45:43;;;;;;;38.75;23.38;;;4.10;99.90;;;;;;5136078;27;20126;-81
2022/03/16 04:48:09;;;;;;;;;;;4.10;99.90;;;;;;5137606;27;20118;-81
2022/03/16 04:50:36;;;;;;;36.88;22.83;;;4.30;99.90;;;;;;5136505;27;19989;-82
2022/03/16 04:53:04;;;;;;;38.95;23.58;;;4.10;99.90;;;;;;5140867;27;20066;-81
2022/03/16 04:55:30;;;;;;;;;;;4.10;99.90;;;;;;5147058;27;20401;-82
2022/03/16 04:57:55;;;;;;;35.85;21.42;;;4.10;99.90;;;;;;5144545;27;19927;-81
2022/03/16 05:00:21;;;;;;;38.75;23.25;;;4.10;99.90;;;;;;5144044;27;20039;-81
2022/03/16 05:02:47;;;;;;;38.60;23.73;;;4.10;99.90;;;;;;5146334;27;20034;-82
2022/03/16 05:05:13;;;;;;;;;;;4.00;99.90;;;;;;5128387;27;20461;-81
2022/03/16 05:07:42;;;;;;;34.35;21.17;;;4.00;99.90;;;;;;5141950;27;19919;-82
2022/03/16 05:10:09;;;;;;;37.65;22.48;;;4.00;99.90;;;;;;5135429;27;20057;-82
2022/03/16 05:12:42;;;;;;;38.70;23.30;;;4.00;99.90;;;;;;5135986;27;20043;-82
2022/03/16 05:15:10;;;;;;;43.28;25.63;;;4.10;99.90;;;;;;5116890;27;20039;-82
2022/03/16 05:17:37;;;;;;;45.17;26.50;;;5.60;99.90;;;;;;5117612;27;20058;-82
2022/03/16 05:20:03;;;;;;;43.63;25.50;;;5.80;99.90;;;;;;5116837;27;20043;-82
2022/03/16 05:22:29;;;;;;;43.50;25.77;;;4.20;99.90;;;;;;5133499;27;20478;-82
2022/03/16 05:24:55;;;;;;;;;;;4.20;99.90;;;;;;5142658;27;20119;-83
2022/03/16 05:27:20;;;;;;;49.07;25.17;;;4.30;99.90;;;;;;5134935;27;19926;-83
2022/03/16 05:29:49;;;;;;;36.80;24.00;;;4.30;99.90;;;;;;5135517;27;20304;-83
2022/03/16 05:32:15;;;;;;;;;;;4.30;99.90;;;;;;5135968;27;20490;-83
2022/03/16 05:34:40;;;;;;;40.72;24.95;;;4.40;99.90;;;;;;5136158;27;20419;-82
2022/03/16 05:37:06;;;;;;;38.63;24.83;;;4.40;99.90;;;;;;5134957;27;20080;-83
2022/03/16 05:39:32;;;;;;;40.10;25.85;;;4.40;99.90;;;;;;5135269;27;20462;-83
2022/03/16 05:42:00;;;;;;;;;;;4.50;99.90;;;;;;5134892;27;20081;-83
2022/03/16 05:44:25;;;;;;;43.35;25.48;;;4.50;99.90;;;;;;5135166;27;19919;-83
2022/03/16 05:46:52;;;;;;;;;;;3.80;99.90;;;;;;5136543;27;20044;-83
2022/03/16 05:49:18;;;;;;;40.33;24.58;;;5.30;99.90;;;;;;5134044;27;20290;-83
2022/03/16 05:51:44;;;;;;;;;;;4.90;99.90;;;;;;5135610;27;20035;-82
2022/03/16 05:54:09;;;;;;;39.17;24.38;;;4.60;99.90;;;;;;5121961;27;20009;-82
2022/03/16 05:56:35;;;;;;;;;;;4.60;99.90;;;;;;5135264;27;20039;-82
2022/03/16 05:59:01;;;;;;;46.30;25.83;;;4.50;99.90;;;;;;5133624;27;19922;-81
2022/03/16 06:01:26;;;;;;;;;;;4.60;99.90;;;;;;5116508;27;20084;-85
2022/03/16 06:03:53;;;;;;;38.60;23.65;;;4.50;99.90;;;;;;5134632;27;19919;-84
2022/03/16 06:06:20;;;;;;;37.90;25.35;;;4.60;99.90;;;;;;5118235;27;20050;-81
2022/03/16 06:08:45;;;;;;;41.20;24.80;;;4.60;99.90;;;;;;5155607;27;20050;-83
2022/03/16 06:11:11;;;;;;;;;;;4.60;99.90;;;;;;5136712;27;20122;-87
2022/03/16 06:13:36;;;;;;;42.15;24.95;;;4.60;99.90;;;;;;5155773;27;19919;-78
2022/03/16 06:16:02;;;;;;;;;;;5.90;99.90;;;;;;5137295;27;20099;-83
2022/03/16 06:18:28;;;;;;;41.80;25.35;;;4.60;99.90;;;;;;5154910;27;20010;-78
2022/03/16 06:20:53;;;;;;;;;;;4.60;99.90;;;;;;5137269;27;20046;-80
2022/03/16 06:23:19;;;;;;;40.70;25.02;;;4.70;99.90;;;;;;5134052;27;20474;-88
2022/03/16 06:25:44;;;;;;;;;;;4.70;99.90;;;;;;5137147;27;20038;-81
2022/03/16 06:28:10;;;;;;;41.15;24.50;;;4.70;99.90;;;;;;5126718;27;20053;-88
2022/03/16 06:30:35;;;;;;;;;;;4.70;99.90;;;;;;5143507;27;20055;-84
2022/03/16 06:33:01;;;;;;;43.88;25.40;;;4.80;99.90;;;;;;5134529;27;19927;-84
2022/03/16 06:35:27;;;;;;;;;;;4.80;99.90;;;;;;5118428;27;20113;-85
2022/03/16 06:37:52;;;;;;;43.83;26.27;;;4.80;99.90;;;;;;5141639;27;20320;-83
2022/03/16 06:40:18;;;;;;;40.70;25.80;;;5.00;99.90;;;;;;5144563;27;20043;-82
2022/03/16 06:42:44;;;;;;;;;;;5.10;99.90;;;;;;5125983;27;20650;-81
2022/03/16 06:45:10;;;;;;;43.30;25.58;;;5.10;99.90;;;;;;5126221;27;19923;-82
2022/03/16 06:47:38;;;;;;;;;;;5.20;99.90;;;;;;5134487;27;20484;-81
2022/03/16 06:50:07;;;;;;;43.72;26.45;;;5.20;99.90;;;;;;5116021;27;20392;-81
2022/03/16 06:52:33;;;;;;;44.05;25.35;;;5.20;99.90;;;;;;5134616;27;20083;-80
2022/03/16 06:54:58;;;;;;;;;;;5.20;99.90;;;;;;5133968;27;20653;-79
2022/03/16 06:57:24;;;;;;;41.75;26.52;;;5.30;99.90;;;;;;5133448;27;20351;-78
2022/03/16 06:59:49;;;;;;;;;;;5.40;99.90;;;;;;5123508;27;20129;-78
2022/03/16 07:02:16;;;;;;;41.85;25.73;;;5.40;99.90;;;;;;5151340;27;19994;-74
2022/03/16 07:04:42;;;;;;;45.28;26.38;;;5.50;99.90;;;;;;5139789;27;20039;-79
2022/03/16 07:07:07;;;;;;;;;;;5.60;99.90;;;;;;5115350;27;20050;-75
2022/03/16 07:09:33;;;;;;;43.10;26.42;;;5.60;99.90;;;;;;5138961;27;20285;-76
2022/03/16 07:11:58;;;;;;;;;;;5.70;99.90;;;;;;5138582;27;20030;-77
2022/03/16 07:14:30;;;;;;;41.10;24.63;;;5.70;99.90;;;;;;5143186;27;19919;-81
2022/03/16 07:16:56;;;;;;;42.47;26.38;;;5.80;99.90;;;;;;5125905;27;20050;-78
2022/03/16 07:19:22;;;;;;;41.30;28.52;;;5.90;99.90;;;;;;5128311;27;20073;-75
2022/03/16 07:21:47;;;;;;;;;;;6.00;99.90;;;;;;5119720;27;20455;-78
2022/03/16 07:24:13;;;;;;;41.33;25.83;;;6.10;99.90;;;;;;5133521;27;19924;-77
2022/03/16 07:26:39;;;;;;;;;;;6.10;99.90;;;;;;5151684;27;20117;-78
2022/03/16 07:29:05;;;;;;;39.30;25.30;;;6.20;99.90;;;;;;5153566;27;19977;-84
2022/03/16 07:31:31;;;;;;;36.97;25.75;;;6.20;99.90;;;;;;5151271;27;20118;-82
2022/03/16 07:34:00;;;;;;;37.45;24.88;;;6.30;99.90;;;;;;5134819;27;20043;-79
2022/03/16 07:36:26;;;;;;;42.03;25.55;;;6.40;99.90;;;;;;5135665;27;20458;-84
2022/03/16 07:38:51;;;;;;;;;;;6.40;99.90;;;;;;5145274;27;20450;-83
2022/03/16 07:41:17;;;;;;;42.35;24.60;;;6.50;99.90;;;;;;5131394;28;19978;-84
2022/03/16 07:43:42;;;;;;;36.67;25.05;;;6.60;99.90;;;;;;5115741;27;20103;-82
2022/03/16 07:46:08;;;;;;;;;;;6.70;99.90;;;;;;5136967;27;20466;-84
2022/03/16 07:48:37;;;;;;;36.33;24.23;;;6.80;99.90;;;;;;5136386;27;20273;-85
2022/03/16 07:51:06;;;;;;;35.53;25.98;;;6.90;99.90;;;;;;5137349;27;20043;-87
2022/03/16 07:53:32;;;;;;;36.53;25.70;;;7.00;99.90;;;;;;5118605;27;20047;-82
2022/03/16 07:55:58;;;;;;;;;;;7.20;99.90;;;;;;5122104;27;20042;-82
2022/03/16 07:58:23;;;;;;;36.45;24.83;;;7.40;99.90;;;;;;5137014;27;19922;-79
2022/03/16 08:00:55;;;;;;;;;;;7.50;99.90;;;;;;5154869;27;20147;-83
2022/03/16 08:03:24;;;;;;;36.83;23.92;;;7.70;99.90;;;;;;5156921;27;19941;-82
2022/03/16 08:05:49;;;;;;;38.45;25.23;;;7.70;99.90;;;;;;5139600;27;20444;-84
2022/03/16 08:08:17;;;;;;;;;;;7.80;99.90;;;;;;5156445;27;20118;-81
2022/03/16 08:10:42;;;;;;;37.13;25.00;;;7.90;99.90;;;;;;5138794;27;20009;-82
2022/03/16 08:13:08;;;;;;;36.22;24.58;;;8.00;99.90;;;;;;5157245;27;20129;-83
2022/03/16 08:15:33;;;;;;;;;;;8.20;99.90;;;;;;5148344;27;20031;-83
2022/03/16 08:17:59;;;;;;;35.67;24.88;;;8.50;99.90;;;;;;5129580;27;19947;-81
2022/03/16 08:20:24;;;;;;;;;;;9.20;99.90;;;;;;5137531;27;20474;-82
2022/03/16 08:22:56;;;;;;;32.90;23.40;;;9.80;99.90;;;;;;5136268;27;19919;-83
2022/03/16 08:25:22;;;;;;;36.33;24.08;;;10.30;99.90;;;;;;5122471;27;20437;-84
2022/03/16 08:27:48;;;;;;;;;;;10.70;99.90;;;;;;5147326;27;20501;-83
2022/03/16 08:30:15;;;;;;;35.25;24.77;;;11.00;99.90;;;;;;5123944;27;19961;-86
2022/03/16 08:32:41;;;;;;;34.67;22.60;;;11.40;99.90;;;;;;5136924;27;20370;-86
2022/03/16 08:35:07;;;;;;;;;;;11.80;99.90;;;;;;5118630;27;20126;-81
2022/03/16 08:37:33;;;;;;;31.55;22.70;;;11.80;99.90;;;;;;5148223;27;19997;-87
2022/03/16 08:39:59;;;;;;;29.00;20.80;;;11.50;99.90;;;;;;5137153;27;20039;-86
2022/03/16 08:42:24;;;;;;;;;;;11.30;99.90;;;;;;5124939;27;20442;-86
2022/03/16 08:44:52;;;;;;;25.75;19.10;;;11.40;99.90;;;;;;5156590;27;19930;-84
2022/03/16 08:47:20;;;;;;;26.38;18.63;;;11.60;99.90;;;;;;5156708;27;20046;-85
2022/03/16 08:49:46;;;;;;;23.70;18.33;;;12.10;99.90;;;;;;5138497;27;20072;-85
2022/03/16 08:52:12;;;;;;;21.90;16.63;;;12.50;99.90;;;;;;5156738;27;20083;-86
2022/03/16 08:54:40;;;;;;;;;;;12.90;99.90;;;;;;5139563;27;20042;-84
2022/03/16 08:57:06;;;;;;;;;;;13.50;99.90;;;;;;5155046;27;19919;-84
2022/03/16 08:59:31;;;;;;;18.63;14.63;;;13.90;99.90;;;;;;5154530;27;19918;-84
2022/03/16 09:01:57;;;;;;;19.17;14.18;;;13.90;99.90;;;;;;5136233;27;20099;-82
2022/03/16 09:04:22;;;;;;;17.27;13.18;;;14.40;99.90;;;;;;5155859;27;20043;-83
2022/03/16 09:06:51;;;;;;;;;;;13.80;99.90;;;;;;5133791;27;20050;-84
2022/03/16 09:09:17;;;;;;;16.88;12.65;;;14.00;99.90;;;;;;5133682;27;20358;-84
2022/03/16 09:11:42;;;;;;;;;;;14.40;99.90;;;;;;5137004;27;20060;-84
2022/03/16 09:14:08;;;;;;;17.83;12.88;;;14.80;99.90;;;;;;5151381;27;20014;-84
2022/03/16 09:16:34;;;;;;;21.50;13.13;;;14.70;99.90;;;;;;5155208;27;20052;-85
2022/03/16 09:19:03;;;;;;;18.05;12.75;;;14.50;99.90;;;;;;5137418;27;20106;-85
2022/03/16 09:21:29;;;;;;;17.20;12.00;;;14.80;99.90;;;;;;5156249;27;20041;-85
2022/03/16 09:23:54;;;;;;;17.88;11.50;;;15.30;99.90;;;;;;5137380;27;20039;-85
2022/03/16 09:26:23;;;;;;;16.23;10.85;;;15.70;99.90;;;;;;5155553;27;20127;-85
2022/03/16 09:28:50;;;;;;;16.95;10.48;;;16.10;99.90;;;;;;5136808;27;20542;-84
2022/03/16 09:31:15;;;;;;;15.95;11.40;;;16.10;99.10;;;;;;5134128;27;20122;-84
2022/03/16 09:33:41;;;;;;;16.02;11.25;;;16.10;99.90;;;;;;5154157;27;20121;-84
2022/03/16 09:36:08;;;;;;;16.65;11.63;;;16.20;99.90;;;;;;5156097;27;20126;-84
2022/03/16 09:38:40;;;;;;;19.02;12.00;;;16.40;99.90;;;;;;5146587;27;20145;-84
2022/03/16 09:41:06;;;;;;;16.10;11.05;;;17.00;99.20;;;;;;5130326;27;20126;-82
2022/03/16 09:43:33;;;;;;;18.50;12.70;;;16.70;99.50;;;;;;5150029;27;20082;-85
2022/03/16 09:46:11;;;;;;;17.52;11.25;;;16.50;99.60;;;;;;5128518;27;20038;-81
2022/03/16 09:48:39;;;;;;;15.45;11.43;;;16.20;99.80;;;;;;5128623;27;20050;-82
2022/03/16 09:51:06;;;;;;;16.42;11.60;;;16.50;99.20;;;;;;5151430;27;20047;-85
2022/03/16 09:53:32;;;;;;;18.15;11.32;;;16.70;99.70;;;;;;5155914;27;20045;-84
2022/03/16 09:55:58;;;;;;;18.75;11.30;;;16.90;99.20;;;;;;5155538;27;20043;-85
2022/03/16 09:58:24;;;;;;;15.38;10.90;;;16.70;98.80;;;;;;5155057;27;20053;-84
2022/03/16 10:00:52;;;;;;;17.40;11.98;;;16.70;99.10;;;;;;5130594;27;20160;-85
2022/03/16 10:03:21;;;;;;;14.85;11.18;;;17.00;98.50;;;;;;5119901;27;20043;-84
2022/03/16 10:05:48;;;;;;;17.33;10.45;;;16.80;98.50;;;;;;5135061;27;20050;-84
2022/03/16 10:08:24;;;;;;;16.25;11.35;;;16.90;97.10;;;;;;5118346;27;20077;-84
2022/03/16 10:13:34;;;;;;;15.23;11.15;;;17.00;95.90;;;;;;5117309;27;20047;-84
2022/03/16 10:16:09;;;;;;;15.68;9.77;;;16.70;97.30;;;;;;5139755;27;20087;-84
2022/03/16 10:18:36;;;;;;;14.85;9.85;;;16.20;97.00;;;;;;5136851;27;20042;-84
2022/03/16 10:21:03;;;;;;;14.73;10.02;;;16.10;96.90;;;;;;5152344;27;20098;-88
2022/03/16 10:23:31;;;;;;;13.50;9.10;;;15.90;98.10;;;;;;5130677;27;20042;-87
2022/03/16 10:26:01;;;;;;;14.82;9.48;;;15.80;98.20;;;;;;5134541;27;20393;-87
2022/03/16 10:28:37;;;;;;;15.15;9.77;;;16.40;97.10;;;;;;5135550;27;20054;-85
2022/03/16 10:31:08;;;;;;;13.48;8.80;;;17.10;97.00;;;;;;5133749;27;20100;-84
2022/03/16 10:33:51;;;;;;;15.05;8.82;;;17.60;95.40;;;;;;5134556;27;20370;-86
2022/03/16 10:36:26;;;;;;;16.52;9.38;;;17.70;94.40;;;;;;5138594;27;20035;-85
2022/03/16 10:38:56;;;;;;;15.17;8.37;;;17.10;94.90;;;;;;5153433;27;20046;-85
2022/03/16 10:47:21;;;;;;;12.77;8.50;;;16.70;95.30;;;;;;5150477;27;20042;-84
2022/03/16 10:49:59;;;;;;;13.85;8.45;;;17.20;95.50;;;;;;5133549;27;20039;-84
2022/03/16 10:52:27;;;;;;;15.77;9.55;;;16.20;95.20;;;;;;5143858;27;20091;-84
2022/03/16 10:54:54;;;;;;;13.40;9.23;;;15.90;97.00;;;;;;5148329;27;20099;-84
2022/03/16 10:57:21;;;;;;;12.63;8.73;;;15.70;97.50;;;;;;5135653;27;20050;-85
2022/03/16 10:59:50;;;;;;;14.52;9.07;;;16.00;97.20;;;;;;5133757;27;20071;-85
2022/03/16 11:02:18;;;;;;;13.80;9.88;;;16.50;96.90;;;;;;5137037;27;20043;-85
2022/03/16 11:04:47;;;;;;;13.95;9.80;;;17.10;97.00;;;;;;5143688;27;20129;-85
2022/03/16 11:07:12;;;;;;;17.33;8.75;;;17.70;95.50;;;;;;5144539;27;20042;-82
2022/03/16 11:09:39;;;;;;;11.55;8.05;;;18.40;93.90;;;;;;5133459;27;20069;-85
2022/03/16 11:14:53;;;;;;;12.82;9.13;;;19.50;91.10;;;;;;5135921;27;20050;-82
2022/03/16 11:17:19;;;;;;;14.18;9.15;;;19.90;85.70;;;;;;5143160;27;20041;-80
2022/03/16 11:19:47;;;;;;;12.32;8.43;;;20.20;85.80;;;;;;5152202;27;20057;-85
2022/03/16 11:22:25;;;;;;;12.88;8.80;;;20.20;84.60;;;;;;5143052;27;20047;-82
2022/03/16 11:25:18;;;;;;;13.25;8.40;;;19.90;80.50;;;;;;5134558;27;20111;-83
2022/03/16 11:27:52;;;;;;;12.75;8.57;;;19.10;81.90;;;;;;5133304;27;20051;-84
2022/03/16 11:30:27;;;;;;;13.32;9.50;;;18.70;85.20;;;;;;5133428;27;20490;-80
2022/03/16 11:33:04;;;;;;;11.25;8.38;;;18.60;87.90;;;;;;5139755;27;20039;-87
2022/03/16 11:35:35;;;;;;;11.27;7.40;;;19.00;84.20;;;;;;5142272;27;20083;-83
2022/03/16 11:38:09;;;;;;;13.40;7.70;;;19.40;82.60;;;;;;5155929;27;20057;-85
2022/03/16 11:40:38;;;;;;;8.75;6.35;;;19.80;78.30;;;;;;5132341;28;20562;-81
2022/03/16 11:43:04;;;;;;;9.43;6.82;;;19.10;78.70;;;;;;5133302;27;20081;-82
2022/03/16 11:45:38;;;;;;;9.55;6.47;;;19.30;76.90;;;;;;5116589;28;20071;-82
2022/03/16 11:48:33;;;;;;;8.68;6.25;;;19.60;76.00;;;;;;5145275;27;20082;-81
2022/03/16 11:51:13;;;;;;;9.00;6.40;;;19.50;74.10;;;;;;5150323;27;20043;-81
2022/03/16 11:56:25;;;;;;;10.57;7.40;;;19.80;74.30;;;;;;5145824;27;20050;-82
2022/03/16 11:59:05;;;;;;;10.63;6.75;;;20.10;76.10;;;;;;5133808;27;20070;-81
2022/03/16 12:01:38;;;;;;;12.38;6.45;;;20.20;71.80;;;;;;5132859;28;20040;-81
2022/03/16 12:04:22;;;;;;;11.48;7.25;;;20.40;73.40;;;;;;5114404;28;20096;-80
2022/03/16 12:07:02;;;;;;;10.52;7.40;;;20.20;72.30;;;;;;5134426;27;20046;-82
2022/03/16 12:09:45;;;;;;;11.50;7.78;;;19.70;73.00;;;;;;5133924;27;20047;-80
2022/03/16 12:15:11;;;;;;;12.07;7.70;;;19.50;74.80;;;;;;5147722;27;20051;-82
2022/03/16 12:17:41;;;;;;;12.98;8.23;;;20.00;75.20;;;;;;5148298;27;20068;-80
2022/03/16 12:20:10;;;;;;;10.40;6.95;;;20.10;74.80;;;;;;5115502;27;20398;-80
2022/03/16 12:22:46;;;;;;;10.70;7.47;;;20.00;70.30;;;;;;5119409;27;20041;-81
2022/03/16 12:25:27;;;;;;;11.40;7.47;;;19.90;73.30;;;;;;5144684;27;20043;-84
2022/03/16 12:31:17;;;;;;;9.43;6.88;;;20.10;73.80;;;;;;5150222;27;20046;-80
2022/03/16 12:33:49;;;;;;;9.85;6.88;;;20.20;70.90;;;;;;5136864;27;20046;-79
2022/03/16 12:36:35;;;;;;;10.35;6.88;;;20.30;70.60;;;;;;5117443;27;20485;-80
2022/03/16 12:39:05;;;;;;;11.43;6.82;;;20.30;67.80;;;;;;5136902;27;20394;-79
2022/03/16 12:44:17;;;;;;;11.63;6.72;;;20.30;69.70;;;;;;5118681;27;20122;-82
2022/03/16 12:46:56;;;;;;;10.43;7.05;;;20.40;70.20;;;;;;5150350;27;20039;-79
2022/03/16 12:49:22;;;;;;;9.50;6.72;;;20.30;69.40;;;;;;5157442;27;20043;-85
2022/03/16 12:51:54;;;;;;;11.48;7.00;;;20.20;68.00;;;;;;5137602;27;20046;-82
2022/03/16 12:54:33;;;;;;;10.05;6.57;;;19.70;68.50;;;;;;5132186;27;20110;-80
2022/03/16 12:57:08;;;;;;;10.15;6.20;;;19.40;67.30;;;;;;5150751;27;20047;-81
2022/03/16 12:59:46;;;;;;;15.93;6.43;;;19.30;69.80;;;;;;5145818;27;20038;-81
2022/03/16 13:02:12;;;;;;;12.65;9.60;;;19.50;68.30;;;;;;5145501;27;20035;-80
2022/03/16 13:04:40;;;;;;;10.02;7.25;;;19.70;70.20;;;;;;5126620;27;20065;-80
2022/03/16 13:07:06;;;;;;;9.45;6.03;;;19.30;71.30;;;;;;5148549;27;20054;-81
2022/03/16 13:09:38;;;;;;;9.88;6.60;;;18.90;70.30;;;;;;5128656;27;20126;-80
2022/03/16 13:12:09;;;;;;;9.35;6.72;;;18.40;70.20;;;;;;5146917;27;20046;-80
2022/03/16 13:14:38;;;;;;;10.00;6.60;;;17.90;73.10;;;;;;5126550;27;20043;-83
2022/03/16 13:17:06;;;;;;;13.13;7.50;;;17.70;77.90;;;;;;5145104;27;20031;-80
2022/03/16 13:19:32;;;;;;;9.88;7.28;;;17.70;78.20;;;;;;5144892;27;20066;-81
2022/03/16 13:22:06;;;;;;;9.50;6.35;;;17.30;77.70;;;;;;5126974;27;20042;-80
2022/03/16 13:24:38;;;;;;;9.70;6.78;;;17.10;79.70;;;;;;5146628;27;20130;-82
2022/03/16 13:27:12;;;;;;;11.25;6.68;;;16.90;82.10;;;;;;5147069;27;20482;-81